sensor_id;sensor_type;location;lat;lon;timestamp;temperature;humidity
871;DHT22;422;51.280;7.236;2024-01-10T00:00:12;-6.60;99.90
871;DHT22;422;51.280;7.236;2024-01-10T00:02:39;-6.70;99.90
871;DHT22;422;51.280;7.236;2024-01-10T00:05:07;-6.70;99.90
871;DHT22;422;51.280;7.236;2024-01-10T00:07:35;-6.70;99.90
871;DHT22;422;51.280;7.236;2024-01-10T00:10:03;-6.80;99.90
871;DHT22;422;51.280;7.236;2024-01-10T00:12:30;-6.80;99.90
871;DHT22;422;51.280;7.236;2024-01-10T00:15:04;-6.80;99.90
871;DHT22;422;51.280;7.236;2024-01-10T00:17:31;-6.80;99.90
871;DHT22;422;51.280;7.236;2024-01-10T00:19:59;-6.80;99.90
871;DHT22;422;51.280;7.236;2024-01-10T00:22:27;-6.80;99.90
871;DHT22;422;51.280;7.236;2024-01-10T00:24:54;-6.80;99.90
871;DHT22;422;51.280;7.236;2024-01-10T00:27:22;-6.80;99.90
871;DHT22;422;51.280;7.236;2024-01-10T00:29:49;-6.80;99.90
871;DHT22;422;51.280;7.236;2024-01-10T00:32:19;-6.80;99.90
871;DHT22;422;51.280;7.236;2024-01-10T00:34:46;-6.90;99.90
871;DHT22;422;51.280;7.236;2024-01-10T00:37:14;-6.80;99.90
871;DHT22;422;51.280;7.236;2024-01-10T00:39:41;-6.90;99.90
871;DHT22;422;51.280;7.236;2024-01-10T00:42:09;-6.90;99.90
871;DHT22;422;51.280;7.236;2024-01-10T00:44:36;-6.90;99.90
871;DHT22;422;51.280;7.236;2024-01-10T00:47:05;-7.00;99.90
871;DHT22;422;51.280;7.236;2024-01-10T00:49:33;-7.00;99.90
871;DHT22;422;51.280;7.236;2024-01-10T00:52:01;-7.00;99.90
871;DHT22;422;51.280;7.236;2024-01-10T00:54:29;-7.10;99.90
871;DHT22;422;51.280;7.236;2024-01-10T00:56:57;-7.10;99.90
871;DHT22;422;51.280;7.236;2024-01-10T00:59:24;-7.10;99.90
871;DHT22;422;51.280;7.236;2024-01-10T01:01:51;-7.20;99.90
871;DHT22;422;51.280;7.236;2024-01-10T01:04:18;-7.10;99.90
871;DHT22;422;51.280;7.236;2024-01-10T01:06:47;-7.10;99.90
871;DHT22;422;51.280;7.236;2024-01-10T01:09:15;-7.10;99.90
871;DHT22;422;51.280;7.236;2024-01-10T01:11:42;-7.10;99.90
871;DHT22;422;51.280;7.236;2024-01-10T01:14:09;-7.10;99.90
871;DHT22;422;51.280;7.236;2024-01-10T01:16:36;-7.10;99.90
871;DHT22;422;51.280;7.236;2024-01-10T01:19:04;-7.00;99.90
871;DHT22;422;51.280;7.236;2024-01-10T01:21:31;-7.00;99.90
871;DHT22;422;51.280;7.236;2024-01-10T01:24:00;-6.90;99.90
871;DHT22;422;51.280;7.236;2024-01-10T01:26:27;-7.00;99.90
871;DHT22;422;51.280;7.236;2024-01-10T01:28:55;-7.00;99.90
871;DHT22;422;51.280;7.236;2024-01-10T01:31:22;-7.00;99.90
871;DHT22;422;51.280;7.236;2024-01-10T01:33:49;-7.10;99.90
871;DHT22;422;51.280;7.236;2024-01-10T01:36:17;-7.10;99.90
871;DHT22;422;51.280;7.236;2024-01-10T01:38:44;-7.10;99.90
871;DHT22;422;51.280;7.236;2024-01-10T01:41:13;-7.10;99.90
871;DHT22;422;51.280;7.236;2024-01-10T01:43:43;-7.00;99.90
871;DHT22;422;51.280;7.236;2024-01-10T01:46:12;-7.00;99.90
871;DHT22;422;51.280;7.236;2024-01-10T01:48:40;-7.00;99.90
871;DHT22;422;51.280;7.236;2024-01-10T01:51:08;-7.10;99.90
871;DHT22;422;51.280;7.236;2024-01-10T01:53:36;-7.10;99.90
871;DHT22;422;51.280;7.236;2024-01-10T01:56:06;-7.10;99.90
871;DHT22;422;51.280;7.236;2024-01-10T01:58:36;-7.00;99.90
871;DHT22;422;51.280;7.236;2024-01-10T02:01:04;-7.00;99.90
871;DHT22;422;51.280;7.236;2024-01-10T02:03:32;-7.10;99.90
871;DHT22;422;51.280;7.236;2024-01-10T02:05:59;-7.00;99.90
871;DHT22;422;51.280;7.236;2024-01-10T02:08:29;-7.10;99.90
871;DHT22;422;51.280;7.236;2024-01-10T02:10:56;-7.10;99.90
871;DHT22;422;51.280;7.236;2024-01-10T02:13:24;-7.10;99.90
871;DHT22;422;51.280;7.236;2024-01-10T02:15:53;-7.20;99.90
871;DHT22;422;51.280;7.236;2024-01-10T02:18:21;-7.30;99.90
871;DHT22;422;51.280;7.236;2024-01-10T02:20:49;-7.40;99.90
871;DHT22;422;51.280;7.236;2024-01-10T02:23:17;-7.40;99.90
871;DHT22;422;51.280;7.236;2024-01-10T02:25:46;-7.40;99.90
871;DHT22;422;51.280;7.236;2024-01-10T02:28:14;-7.40;99.90
871;DHT22;422;51.280;7.236;2024-01-10T02:30:41;-7.50;99.90
871;DHT22;422;51.280;7.236;2024-01-10T02:33:08;-7.50;99.90
871;DHT22;422;51.280;7.236;2024-01-10T02:35:35;-7.50;99.90
871;DHT22;422;51.280;7.236;2024-01-10T02:38:03;-7.50;99.90
871;DHT22;422;51.280;7.236;2024-01-10T02:40:30;-7.50;99.90
871;DHT22;422;51.280;7.236;2024-01-10T02:42:59;-7.50;99.90
871;DHT22;422;51.280;7.236;2024-01-10T02:45:26;-7.40;99.90
871;DHT22;422;51.280;7.236;2024-01-10T02:47:54;-7.50;99.90
871;DHT22;422;51.280;7.236;2024-01-10T02:50:21;-7.40;99.90
871;DHT22;422;51.280;7.236;2024-01-10T02:52:48;-7.40;99.90
871;DHT22;422;51.280;7.236;2024-01-10T02:55:16;-7.40;99.90
871;DHT22;422;51.280;7.236;2024-01-10T02:57:44;-7.40;99.90
871;DHT22;422;51.280;7.236;2024-01-10T03:00:13;-7.40;99.90
871;DHT22;422;51.280;7.236;2024-01-10T03:02:40;-7.30;99.90
871;DHT22;422;51.280;7.236;2024-01-10T03:05:08;-7.40;99.90
871;DHT22;422;51.280;7.236;2024-01-10T03:07:35;-7.40;99.90
871;DHT22;422;51.280;7.236;2024-01-10T03:10:02;-7.50;99.90
871;DHT22;422;51.280;7.236;2024-01-10T03:12:30;-7.50;99.90
871;DHT22;422;51.280;7.236;2024-01-10T03:14:58;-7.60;99.90
871;DHT22;422;51.280;7.236;2024-01-10T03:17:27;-7.70;99.90
871;DHT22;422;51.280;7.236;2024-01-10T03:19:54;-7.80;99.90
871;DHT22;422;51.280;7.236;2024-01-10T03:22:21;-7.80;99.90
871;DHT22;422;51.280;7.236;2024-01-10T03:24:48;-7.90;99.90
871;DHT22;422;51.280;7.236;2024-01-10T03:27:16;-7.90;99.90
871;DHT22;422;51.280;7.236;2024-01-10T03:29:43;-7.90;99.90
871;DHT22;422;51.280;7.236;2024-01-10T03:32:10;-8.00;99.90
871;DHT22;422;51.280;7.236;2024-01-10T03:34:41;-7.90;99.90
871;DHT22;422;51.280;7.236;2024-01-10T03:37:09;-8.00;99.90
871;DHT22;422;51.280;7.236;2024-01-10T03:39:36;-7.90;99.90
871;DHT22;422;51.280;7.236;2024-01-10T03:42:04;-8.00;99.90
871;DHT22;422;51.280;7.236;2024-01-10T03:44:31;-8.00;99.90
871;DHT22;422;51.280;7.236;2024-01-10T03:46:58;-8.00;99.90
871;DHT22;422;51.280;7.236;2024-01-10T03:49:26;-8.00;99.90
871;DHT22;422;51.280;7.236;2024-01-10T03:51:55;-8.00;99.90
871;DHT22;422;51.280;7.236;2024-01-10T03:54:22;-8.10;99.90
871;DHT22;422;51.280;7.236;2024-01-10T03:56:50;-8.00;99.90
871;DHT22;422;51.280;7.236;2024-01-10T03:59:17;-8.00;99.90
871;DHT22;422;51.280;7.236;2024-01-10T04:01:45;-8.00;99.90
871;DHT22;422;51.280;7.236;2024-01-10T04:04:12;-8.00;99.90
871;DHT22;422;51.280;7.236;2024-01-10T04:06:39;-8.00;99.90
871;DHT22;422;51.280;7.236;2024-01-10T04:09:08;-7.90;99.90
871;DHT22;422;51.280;7.236;2024-01-10T04:11:37;-7.90;99.90
871;DHT22;422;51.280;7.236;2024-01-10T04:14:04;-7.80;99.90
871;DHT22;422;51.280;7.236;2024-01-10T04:16:32;-7.80;99.90
871;DHT22;422;51.280;7.236;2024-01-10T04:19:00;-7.80;99.90
871;DHT22;422;51.280;7.236;2024-01-10T04:21:27;-7.90;99.90
871;DHT22;422;51.280;7.236;2024-01-10T04:23:55;-7.90;99.90
871;DHT22;422;51.280;7.236;2024-01-10T04:26:24;-7.90;99.90
871;DHT22;422;51.280;7.236;2024-01-10T04:28:52;-7.90;99.90
871;DHT22;422;51.280;7.236;2024-01-10T04:31:19;-7.90;99.90
871;DHT22;422;51.280;7.236;2024-01-10T04:33:46;-7.90;99.90
871;DHT22;422;51.280;7.236;2024-01-10T04:36:14;-7.90;99.90
871;DHT22;422;51.280;7.236;2024-01-10T04:38:42;-7.90;99.90
871;DHT22;422;51.280;7.236;2024-01-10T04:41:09;-7.90;99.90
871;DHT22;422;51.280;7.236;2024-01-10T04:43:38;-7.90;99.90
871;DHT22;422;51.280;7.236;2024-01-10T04:46:06;-7.90;99.90
871;DHT22;422;51.280;7.236;2024-01-10T04:48:36;-7.90;99.90
871;DHT22;422;51.280;7.236;2024-01-10T04:51:03;-8.00;99.90
871;DHT22;422;51.280;7.236;2024-01-10T04:53:31;-7.90;99.90
871;DHT22;422;51.280;7.236;2024-01-10T04:55:59;-7.90;99.90
871;DHT22;422;51.280;7.236;2024-01-10T04:58:26;-7.90;99.90
871;DHT22;422;51.280;7.236;2024-01-10T05:00:56;-7.90;99.90
871;DHT22;422;51.280;7.236;2024-01-10T05:03:24;-7.90;99.90
871;DHT22;422;51.280;7.236;2024-01-10T05:05:51;-7.90;99.90
871;DHT22;422;51.280;7.236;2024-01-10T05:08:18;-7.80;99.90
871;DHT22;422;51.280;7.236;2024-01-10T05:10:46;-7.90;99.90
871;DHT22;422;51.280;7.236;2024-01-10T05:13:13;-7.80;99.90
871;DHT22;422;51.280;7.236;2024-01-10T05:15:40;-7.90;99.90
871;DHT22;422;51.280;7.236;2024-01-10T05:18:09;-7.90;99.90
871;DHT22;422;51.280;7.236;2024-01-10T05:20:37;-8.00;99.90
871;DHT22;422;51.280;7.236;2024-01-10T05:23:05;-8.00;99.90
871;DHT22;422;51.280;7.236;2024-01-10T05:25:32;-7.90;99.90
871;DHT22;422;51.280;7.236;2024-01-10T05:27:59;-7.90;99.90
871;DHT22;422;51.280;7.236;2024-01-10T05:30:26;-7.90;99.90
871;DHT22;422;51.280;7.236;2024-01-10T05:32:56;-7.90;99.90
871;DHT22;422;51.280;7.236;2024-01-10T05:35:24;-8.00;99.90
871;DHT22;422;51.280;7.236;2024-01-10T05:37:52;-7.90;99.90
871;DHT22;422;51.280;7.236;2024-01-10T05:40:20;-8.00;99.90
871;DHT22;422;51.280;7.236;2024-01-10T05:42:47;-7.90;99.90
871;DHT22;422;51.280;7.236;2024-01-10T05:45:15;-7.90;99.90
871;DHT22;422;51.280;7.236;2024-01-10T05:47:44;-7.80;99.90
871;DHT22;422;51.280;7.236;2024-01-10T05:50:11;-7.80;99.90
871;DHT22;422;51.280;7.236;2024-01-10T05:52:39;-7.70;99.90
871;DHT22;422;51.280;7.236;2024-01-10T05:55:07;-7.70;99.90
871;DHT22;422;51.280;7.236;2024-01-10T05:57:34;-7.70;99.90
871;DHT22;422;51.280;7.236;2024-01-10T06:00:02;-7.70;99.90
871;DHT22;422;51.280;7.236;2024-01-10T06:02:30;-7.60;99.90
871;DHT22;422;51.280;7.236;2024-01-10T06:04:58;-7.60;99.90
871;DHT22;422;51.280;7.236;2024-01-10T06:07:25;-7.60;99.90
871;DHT22;422;51.280;7.236;2024-01-10T06:09:54;-7.50;99.90
871;DHT22;422;51.280;7.236;2024-01-10T06:12:22;-7.40;99.90
871;DHT22;422;51.280;7.236;2024-01-10T06:14:49;-7.50;99.90
871;DHT22;422;51.280;7.236;2024-01-10T06:17:17;-7.50;99.90
871;DHT22;422;51.280;7.236;2024-01-10T06:19:45;-7.40;99.90
871;DHT22;422;51.280;7.236;2024-01-10T06:22:12;-7.40;99.90
871;DHT22;422;51.280;7.236;2024-01-10T06:24:40;-7.30;99.90
871;DHT22;422;51.280;7.236;2024-01-10T06:27:09;-7.20;99.90
871;DHT22;422;51.280;7.236;2024-01-10T06:29:37;-6.80;99.90
871;DHT22;422;51.280;7.236;2024-01-10T06:32:04;-6.80;99.90
871;DHT22;422;51.280;7.236;2024-01-10T06:34:32;-6.90;99.90
871;DHT22;422;51.280;7.236;2024-01-10T06:36:59;-7.10;99.90
871;DHT22;422;51.280;7.236;2024-01-10T06:39:27;-7.30;99.90
871;DHT22;422;51.280;7.236;2024-01-10T06:41:55;-7.30;99.90
871;DHT22;422;51.280;7.236;2024-01-10T06:44:25;-7.30;99.90
871;DHT22;422;51.280;7.236;2024-01-10T06:46:53;-7.30;99.90
871;DHT22;422;51.280;7.236;2024-01-10T06:49:21;-7.40;99.90
871;DHT22;422;51.280;7.236;2024-01-10T06:51:48;-7.50;99.90
871;DHT22;422;51.280;7.236;2024-01-10T06:54:16;-7.50;99.90
871;DHT22;422;51.280;7.236;2024-01-10T06:56:44;-7.60;99.90
871;DHT22;422;51.280;7.236;2024-01-10T06:59:11;-7.60;99.90
871;DHT22;422;51.280;7.236;2024-01-10T07:01:40;-7.70;99.90
871;DHT22;422;51.280;7.236;2024-01-10T07:04:07;-7.70;99.90
871;DHT22;422;51.280;7.236;2024-01-10T07:06:34;-7.60;99.90
871;DHT22;422;51.280;7.236;2024-01-10T07:09:02;-7.60;99.90
871;DHT22;422;51.280;7.236;2024-01-10T07:11:31;-7.60;99.90
871;DHT22;422;51.280;7.236;2024-01-10T07:13:58;-7.70;99.90
871;DHT22;422;51.280;7.236;2024-01-10T07:16:26;-7.70;99.90
871;DHT22;422;51.280;7.236;2024-01-10T07:18:55;-7.70;99.90
871;DHT22;422;51.280;7.236;2024-01-10T07:21:22;-7.70;99.90
871;DHT22;422;51.280;7.236;2024-01-10T07:23:50;-7.70;99.90
871;DHT22;422;51.280;7.236;2024-01-10T07:26:17;-7.60;99.90
871;DHT22;422;51.280;7.236;2024-01-10T07:28:44;-7.60;99.90
871;DHT22;422;51.280;7.236;2024-01-10T07:31:12;-7.60;99.90
871;DHT22;422;51.280;7.236;2024-01-10T07:33:39;-7.60;99.90
871;DHT22;422;51.280;7.236;2024-01-10T07:36:08;-7.60;99.90
871;DHT22;422;51.280;7.236;2024-01-10T07:38:36;-7.60;99.90
871;DHT22;422;51.280;7.236;2024-01-10T07:41:03;-7.60;99.90
871;DHT22;422;51.280;7.236;2024-01-10T07:43:29;-7.60;99.90
871;DHT22;422;51.280;7.236;2024-01-10T07:45:57;-7.60;99.90
871;DHT22;422;51.280;7.236;2024-01-10T07:48:26;-7.50;99.90
871;DHT22;422;51.280;7.236;2024-01-10T07:50:56;-7.50;99.90
871;DHT22;422;51.280;7.236;2024-01-10T07:53:25;-7.50;99.90
871;DHT22;422;51.280;7.236;2024-01-10T07:55:52;-7.50;99.90
871;DHT22;422;51.280;7.236;2024-01-10T07:58:20;-7.50;99.90
871;DHT22;422;51.280;7.236;2024-01-10T08:00:47;-7.40;99.90
871;DHT22;422;51.280;7.236;2024-01-10T08:03:15;-7.40;99.90
871;DHT22;422;51.280;7.236;2024-01-10T08:05:42;-7.40;99.90
871;DHT22;422;51.280;7.236;2024-01-10T08:08:10;-7.30;99.90
871;DHT22;422;51.280;7.236;2024-01-10T08:10:41;-7.30;99.90
871;DHT22;422;51.280;7.236;2024-01-10T08:13:08;-7.20;99.90
871;DHT22;422;51.280;7.236;2024-01-10T08:15:36;-7.00;99.90
871;DHT22;422;51.280;7.236;2024-01-10T08:18:04;-6.90;99.90
871;DHT22;422;51.280;7.236;2024-01-10T08:20:33;-6.80;99.90
871;DHT22;422;51.280;7.236;2024-01-10T08:23:00;-6.60;99.90
871;DHT22;422;51.280;7.236;2024-01-10T08:25:28;-6.50;99.90
871;DHT22;422;51.280;7.236;2024-01-10T08:27:56;-6.40;99.90
871;DHT22;422;51.280;7.236;2024-01-10T08:30:24;-6.20;99.90
871;DHT22;422;51.280;7.236;2024-01-10T08:32:52;-6.00;99.90
871;DHT22;422;51.280;7.236;2024-01-10T08:35:20;-5.90;99.90
871;DHT22;422;51.280;7.236;2024-01-10T08:37:47;-5.70;99.90
871;DHT22;422;51.280;7.236;2024-01-10T08:40:15;-5.60;99.90
871;DHT22;422;51.280;7.236;2024-01-10T08:42:43;-5.40;99.90
871;DHT22;422;51.280;7.236;2024-01-10T08:45:12;-5.30;99.90
871;DHT22;422;51.280;7.236;2024-01-10T08:47:40;-5.10;99.90
871;DHT22;422;51.280;7.236;2024-01-10T08:50:09;-5.00;99.90
871;DHT22;422;51.280;7.236;2024-01-10T08:52:37;-4.90;99.90
871;DHT22;422;51.280;7.236;2024-01-10T08:55:05;-4.70;99.90
871;DHT22;422;51.280;7.236;2024-01-10T08:57:33;-4.70;99.90
871;DHT22;422;51.280;7.236;2024-01-10T09:00:01;-4.50;99.90
871;DHT22;422;51.280;7.236;2024-01-10T09:02:33;-4.40;99.90
871;DHT22;422;51.280;7.236;2024-01-10T09:05:02;-4.20;99.90
871;DHT22;422;51.280;7.236;2024-01-10T09:07:30;-4.10;99.90
871;DHT22;422;51.280;7.236;2024-01-10T09:09:57;-4.00;99.90
871;DHT22;422;51.280;7.236;2024-01-10T09:12:25;-3.80;99.90
871;DHT22;422;51.280;7.236;2024-01-10T09:14:52;-3.80;99.90
871;DHT22;422;51.280;7.236;2024-01-10T09:17:20;-3.70;99.90
871;DHT22;422;51.280;7.236;2024-01-10T09:19:49;-3.60;99.90
871;DHT22;422;51.280;7.236;2024-01-10T09:22:16;-3.50;99.90
871;DHT22;422;51.280;7.236;2024-01-10T09:24:44;-3.40;99.90
871;DHT22;422;51.280;7.236;2024-01-10T09:27:12;-3.20;99.90
871;DHT22;422;51.280;7.236;2024-01-10T09:29:39;-3.20;99.90
871;DHT22;422;51.280;7.236;2024-01-10T09:32:07;-3.10;99.90
871;DHT22;422;51.280;7.236;2024-01-10T09:34:34;-3.00;99.90
871;DHT22;422;51.280;7.236;2024-01-10T09:37:03;-3.10;99.90
871;DHT22;422;51.280;7.236;2024-01-10T09:39:31;-3.10;99.90
871;DHT22;422;51.280;7.236;2024-01-10T09:41:58;-2.90;99.90
871;DHT22;422;51.280;7.236;2024-01-10T09:44:27;-2.70;99.90
871;DHT22;422;51.280;7.236;2024-01-10T09:46:55;-2.40;99.90
871;DHT22;422;51.280;7.236;2024-01-10T09:49:22;-2.30;99.90
871;DHT22;422;51.280;7.236;2024-01-10T09:51:55;-2.20;99.90
871;DHT22;422;51.280;7.236;2024-01-10T09:54:26;-2.00;99.90
871;DHT22;422;51.280;7.236;2024-01-10T09:56:56;-2.00;99.90
871;DHT22;422;51.280;7.236;2024-01-10T09:59:24;-2.10;99.90
871;DHT22;422;51.280;7.236;2024-01-10T10:01:52;-2.20;99.90
871;DHT22;422;51.280;7.236;2024-01-10T10:04:20;-2.70;99.90
871;DHT22;422;51.280;7.236;2024-01-10T10:06:58;-2.30;99.90
871;DHT22;422;51.280;7.236;2024-01-10T10:09:29;-2.10;99.90
871;DHT22;422;51.280;7.236;2024-01-10T10:11:57;-1.80;99.90
871;DHT22;422;51.280;7.236;2024-01-10T10:14:28;-1.60;99.90
871;DHT22;422;51.280;7.236;2024-01-10T10:16:56;-1.30;99.90
871;DHT22;422;51.280;7.236;2024-01-10T10:19:24;-1.00;99.90
871;DHT22;422;51.280;7.236;2024-01-10T10:21:51;-0.80;99.90
871;DHT22;422;51.280;7.236;2024-01-10T10:24:19;-0.70;99.90
871;DHT22;422;51.280;7.236;2024-01-10T10:26:48;-0.50;99.90
871;DHT22;422;51.280;7.236;2024-01-10T10:29:17;-0.30;99.90
871;DHT22;422;51.280;7.236;2024-01-10T10:31:47;-0.20;99.90
871;DHT22;422;51.280;7.236;2024-01-10T10:34:21;-0.20;99.90
871;DHT22;422;51.280;7.236;2024-01-10T10:36:49;0.00;99.90
871;DHT22;422;51.280;7.236;2024-01-10T10:39:16;0.20;99.90
871;DHT22;422;51.280;7.236;2024-01-10T10:41:48;0.30;99.90
871;DHT22;422;51.280;7.236;2024-01-10T10:44:19;0.30;99.90
871;DHT22;422;51.280;7.236;2024-01-10T10:46:49;0.20;99.90
871;DHT22;422;51.280;7.236;2024-01-10T10:49:25;0.40;99.90
871;DHT22;422;51.280;7.236;2024-01-10T10:51:58;0.60;99.90
871;DHT22;422;51.280;7.236;2024-01-10T10:54:29;0.80;99.90
871;DHT22;422;51.280;7.236;2024-01-10T10:57:02;1.10;99.90
871;DHT22;422;51.280;7.236;2024-01-10T10:59:32;1.30;99.90
871;DHT22;422;51.280;7.236;2024-01-10T11:02:01;1.40;99.90
871;DHT22;422;51.280;7.236;2024-01-10T11:04:29;1.10;99.90
871;DHT22;422;51.280;7.236;2024-01-10T11:06:57;0.90;99.90
871;DHT22;422;51.280;7.236;2024-01-10T11:09:25;0.90;99.90
871;DHT22;422;51.280;7.236;2024-01-10T11:12:15;1.00;99.90
871;DHT22;422;51.280;7.236;2024-01-10T11:14:57;1.10;99.90
871;DHT22;422;51.280;7.236;2024-01-10T11:17:49;1.40;99.90
871;DHT22;422;51.280;7.236;2024-01-10T11:20:35;1.60;99.90
871;DHT22;422;51.280;7.236;2024-01-10T11:23:29;1.70;99.90
871;DHT22;422;51.280;7.236;2024-01-10T11:25:59;1.90;99.90
871;DHT22;422;51.280;7.236;2024-01-10T11:28:30;2.10;99.90
871;DHT22;422;51.280;7.236;2024-01-10T11:30:59;2.30;99.90
871;DHT22;422;51.280;7.236;2024-01-10T11:33:31;2.30;99.90
871;DHT22;422;51.280;7.236;2024-01-10T11:36:15;2.30;99.90
871;DHT22;422;51.280;7.236;2024-01-10T11:38:47;2.20;99.90
871;DHT22;422;51.280;7.236;2024-01-10T11:41:22;2.20;99.90
871;DHT22;422;51.280;7.236;2024-01-10T11:47:07;2.50;99.90
871;DHT22;422;51.280;7.236;2024-01-10T11:49:36;2.70;99.90
871;DHT22;422;51.280;7.236;2024-01-10T11:52:04;2.90;99.90
871;DHT22;422;51.280;7.236;2024-01-10T11:54:41;3.00;99.90
871;DHT22;422;51.280;7.236;2024-01-10T11:57:11;3.30;99.90
871;DHT22;422;51.280;7.236;2024-01-10T11:59:41;3.20;99.90
871;DHT22;422;51.280;7.236;2024-01-10T12:02:11;3.40;99.90
871;DHT22;422;51.280;7.236;2024-01-10T12:04:40;3.50;99.90
871;DHT22;422;51.280;7.236;2024-01-10T12:07:08;3.70;99.90
871;DHT22;422;51.280;7.236;2024-01-10T12:09:35;3.70;99.90
871;DHT22;422;51.280;7.236;2024-01-10T12:12:03;3.90;99.90
871;DHT22;422;51.280;7.236;2024-01-10T12:14:31;4.00;99.90
871;DHT22;422;51.280;7.236;2024-01-10T12:16:59;3.80;99.90
871;DHT22;422;51.280;7.236;2024-01-10T12:19:29;3.90;99.90
871;DHT22;422;51.280;7.236;2024-01-10T12:21:57;3.90;99.90
871;DHT22;422;51.280;7.236;2024-01-10T12:24:27;3.80;99.90
871;DHT22;422;51.280;7.236;2024-01-10T12:26:56;3.80;99.90
871;DHT22;422;51.280;7.236;2024-01-10T12:29:24;3.70;99.90
871;DHT22;422;51.280;7.236;2024-01-10T12:31:51;3.20;99.90
871;DHT22;422;51.280;7.236;2024-01-10T12:34:20;2.80;99.90
871;DHT22;422;51.280;7.236;2024-01-10T12:36:54;2.30;99.90
871;DHT22;422;51.280;7.236;2024-01-10T12:39:22;1.80;99.90
871;DHT22;422;51.280;7.236;2024-01-10T12:41:51;1.50;99.90
871;DHT22;422;51.280;7.236;2024-01-10T12:44:19;1.30;99.90
871;DHT22;422;51.280;7.236;2024-01-10T12:46:50;0.90;99.90
871;DHT22;422;51.280;7.236;2024-01-10T12:49:18;0.70;99.90
871;DHT22;422;51.280;7.236;2024-01-10T12:51:48;0.70;99.90
871;DHT22;422;51.280;7.236;2024-01-10T12:54:16;0.60;99.90
871;DHT22;422;51.280;7.236;2024-01-10T12:56:44;0.60;99.90
871;DHT22;422;51.280;7.236;2024-01-10T12:59:11;0.40;99.90
871;DHT22;422;51.280;7.236;2024-01-10T13:01:39;0.30;99.90
871;DHT22;422;51.280;7.236;2024-01-10T13:04:07;0.40;99.90
871;DHT22;422;51.280;7.236;2024-01-10T13:06:35;0.40;99.90
871;DHT22;422;51.280;7.236;2024-01-10T13:09:04;0.20;99.90
871;DHT22;422;51.280;7.236;2024-01-10T13:11:32;0.00;99.90
871;DHT22;422;51.280;7.236;2024-01-10T13:13:59;-0.10;99.90
871;DHT22;422;51.280;7.236;2024-01-10T13:16:27;-0.10;99.90
871;DHT22;422;51.280;7.236;2024-01-10T13:18:55;0.10;99.90
871;DHT22;422;51.280;7.236;2024-01-10T13:21:23;0.10;99.90
871;DHT22;422;51.280;7.236;2024-01-10T13:23:51;-0.10;99.90
871;DHT22;422;51.280;7.236;2024-01-10T13:26:20;0.10;99.90
871;DHT22;422;51.280;7.236;2024-01-10T13:28:49;0.30;99.90
871;DHT22;422;51.280;7.236;2024-01-10T13:31:17;0.30;99.90
871;DHT22;422;51.280;7.236;2024-01-10T13:33:44;0.20;99.90
871;DHT22;422;51.280;7.236;2024-01-10T13:36:12;0.10;99.90
871;DHT22;422;51.280;7.236;2024-01-10T13:38:40;-0.10;99.90
871;DHT22;422;51.280;7.236;2024-01-10T13:41:07;-0.20;99.90
871;DHT22;422;51.280;7.236;2024-01-10T13:43:36;-0.30;99.90
871;DHT22;422;51.280;7.236;2024-01-10T13:46:03;-0.30;99.90
871;DHT22;422;51.280;7.236;2024-01-10T13:48:31;-0.30;99.90
871;DHT22;422;51.280;7.236;2024-01-10T13:50:58;-0.30;99.90
871;DHT22;422;51.280;7.236;2024-01-10T13:53:26;-0.40;99.90
871;DHT22;422;51.280;7.236;2024-01-10T13:55:53;-0.40;99.90
871;DHT22;422;51.280;7.236;2024-01-10T13:58:21;-0.50;99.90
871;DHT22;422;51.280;7.236;2024-01-10T14:00:51;-0.60;99.90
871;DHT22;422;51.280;7.236;2024-01-10T14:03:18;-0.60;99.90
871;DHT22;422;51.280;7.236;2024-01-10T14:05:47;-0.50;99.90
871;DHT22;422;51.280;7.236;2024-01-10T14:08:15;-0.50;99.90
871;DHT22;422;51.280;7.236;2024-01-10T14:10:43;-0.60;99.90
871;DHT22;422;51.280;7.236;2024-01-10T14:13:10;-0.60;99.90
871;DHT22;422;51.280;7.236;2024-01-10T14:15:38;-0.70;99.90
871;DHT22;422;51.280;7.236;2024-01-10T14:18:07;-0.70;99.90
871;DHT22;422;51.280;7.236;2024-01-10T14:20:35;-0.70;99.90
871;DHT22;422;51.280;7.236;2024-01-10T14:23:03;-0.70;99.90
871;DHT22;422;51.280;7.236;2024-01-10T14:25:32;-0.60;99.90
871;DHT22;422;51.280;7.236;2024-01-10T14:28:00;-0.70;99.90
871;DHT22;422;51.280;7.236;2024-01-10T14:30:29;-0.60;99.90
871;DHT22;422;51.280;7.236;2024-01-10T14:32:58;-0.60;99.90
871;DHT22;422;51.280;7.236;2024-01-10T14:35:27;-0.60;99.90
871;DHT22;422;51.280;7.236;2024-01-10T14:37:54;-0.60;99.90
871;DHT22;422;51.280;7.236;2024-01-10T14:40:23;-0.50;99.90
871;DHT22;422;51.280;7.236;2024-01-10T14:42:51;-0.50;99.90
871;DHT22;422;51.280;7.236;2024-01-10T14:45:18;-0.50;99.90
871;DHT22;422;51.280;7.236;2024-01-10T14:47:46;-0.40;99.90
871;DHT22;422;51.280;7.236;2024-01-10T14:50:13;-0.30;99.90
871;DHT22;422;51.280;7.236;2024-01-10T14:52:42;-0.40;99.90
871;DHT22;422;51.280;7.236;2024-01-10T14:55:10;-0.50;99.90
871;DHT22;422;51.280;7.236;2024-01-10T14:57:37;-0.70;99.90
871;DHT22;422;51.280;7.236;2024-01-10T15:00:06;-0.80;99.90
871;DHT22;422;51.280;7.236;2024-01-10T15:02:36;-0.90;99.90
871;DHT22;422;51.280;7.236;2024-01-10T15:05:04;-1.00;99.90
871;DHT22;422;51.280;7.236;2024-01-10T15:07:32;-1.10;99.90
871;DHT22;422;51.280;7.236;2024-01-10T15:10:02;-1.10;99.90
871;DHT22;422;51.280;7.236;2024-01-10T15:12:30;-1.30;99.90
871;DHT22;422;51.280;7.236;2024-01-10T15:14:58;-1.40;99.90
871;DHT22;422;51.280;7.236;2024-01-10T15:17:27;-1.40;99.90
871;DHT22;422;51.280;7.236;2024-01-10T15:19:54;-1.50;99.90
871;DHT22;422;51.280;7.236;2024-01-10T15:22:22;-1.50;99.90
871;DHT22;422;51.280;7.236;2024-01-10T15:24:49;-1.50;99.90
871;DHT22;422;51.280;7.236;2024-01-10T15:27:19;-1.60;99.90
871;DHT22;422;51.280;7.236;2024-01-10T15:29:46;-1.60;99.90
871;DHT22;422;51.280;7.236;2024-01-10T15:32:14;-1.60;99.90
871;DHT22;422;51.280;7.236;2024-01-10T15:34:42;-1.70;99.90
871;DHT22;422;51.280;7.236;2024-01-10T15:37:10;-1.80;99.90
871;DHT22;422;51.280;7.236;2024-01-10T15:39:40;-1.80;99.90
871;DHT22;422;51.280;7.236;2024-01-10T15:42:07;-1.80;99.90
871;DHT22;422;51.280;7.236;2024-01-10T15:44:41;-1.90;99.90
871;DHT22;422;51.280;7.236;2024-01-10T15:47:09;-1.90;99.90
871;DHT22;422;51.280;7.236;2024-01-10T15:49:36;-1.90;99.90
871;DHT22;422;51.280;7.236;2024-01-10T15:52:05;-1.90;99.90
871;DHT22;422;51.280;7.236;2024-01-10T15:54:33;-2.00;99.90
871;DHT22;422;51.280;7.236;2024-01-10T15:57:03;-2.00;99.90
871;DHT22;422;51.280;7.236;2024-01-10T15:59:32;-2.00;99.90
871;DHT22;422;51.280;7.236;2024-01-10T16:02:01;-2.10;99.90
871;DHT22;422;51.280;7.236;2024-01-10T16:04:28;-2.10;99.90
871;DHT22;422;51.280;7.236;2024-01-10T16:06:56;-2.20;99.90
871;DHT22;422;51.280;7.236;2024-01-10T16:09:23;-2.20;99.90
871;DHT22;422;51.280;7.236;2024-01-10T16:11:51;-2.20;99.90
871;DHT22;422;51.280;7.236;2024-01-10T16:14:18;-2.30;99.90
871;DHT22;422;51.280;7.236;2024-01-10T16:16:46;-2.40;99.90
871;DHT22;422;51.280;7.236;2024-01-10T16:19:16;-2.40;99.90
871;DHT22;422;51.280;7.236;2024-01-10T16:21:43;-2.40;99.90
871;DHT22;422;51.280;7.236;2024-01-10T16:24:11;-2.30;99.90
871;DHT22;422;51.280;7.236;2024-01-10T16:26:39;-2.50;99.90
871;DHT22;422;51.280;7.236;2024-01-10T16:29:07;-2.60;99.90
871;DHT22;422;51.280;7.236;2024-01-10T16:31:35;-2.60;99.90
871;DHT22;422;51.280;7.236;2024-01-10T16:34:03;-2.70;99.90
871;DHT22;422;51.280;7.236;2024-01-10T16:36:32;-2.60;99.90
871;DHT22;422;51.280;7.236;2024-01-10T16:38:59;-2.60;99.90
871;DHT22;422;51.280;7.236;2024-01-10T16:41:27;-2.70;99.90
871;DHT22;422;51.280;7.236;2024-01-10T16:43:54;-2.70;99.90
871;DHT22;422;51.280;7.236;2024-01-10T16:46:22;-2.70;99.90